createdAt,value
2022-12-18T00:02:25.030Z,-4.14
2022-12-18T00:06:30.239Z,-4.05
2022-12-18T00:10:33.552Z,-3.78
2022-12-18T00:14:36.707Z,-3.57
2022-12-18T00:18:42.063Z,-3.45
2022-12-18T00:22:45.366Z,-3.26
2022-12-18T00:26:48.639Z,-3.17
2022-12-18T00:30:52.573Z,-3.02
2022-12-18T00:34:57.428Z,-2.91
2022-12-18T00:39:01.827Z,-2.77
2022-12-18T00:43:05.262Z,-2.74
2022-12-18T00:47:08.638Z,-2.53
2022-12-18T00:51:13.912Z,-2.42
2022-12-18T00:55:17.454Z,-2.29
2022-12-18T00:59:21.399Z,-2.19
2022-12-18T01:03:25.519Z,-2.18
2022-12-18T01:07:31.190Z,-2.01
2022-12-18T01:11:34.163Z,-1.99
2022-12-18T01:15:37.397Z,-1.87
2022-12-18T01:19:40.401Z,-1.84
2022-12-18T01:23:45.418Z,-1.80
2022-12-18T01:27:48.519Z,-1.88
2022-12-18T01:31:52.569Z,-1.81
2022-12-18T01:35:56.196Z,-1.83
2022-12-18T01:40:01.325Z,-1.76
2022-12-18T01:44:04.608Z,-1.74
2022-12-18T01:48:11.441Z,-1.70
2022-12-18T01:52:15.655Z,-1.70
2022-12-18T01:56:24.219Z,-1.69
2022-12-18T02:00:29.725Z,-1.71
2022-12-18T02:04:32.892Z,-1.71
2022-12-18T02:08:43.574Z,-1.70
2022-12-18T02:12:54.946Z,-1.69
2022-12-18T02:17:06.430Z,-1.67
2022-12-18T02:21:20.893Z,-1.64
2022-12-18T02:25:38.248Z,-1.61
2022-12-18T02:29:54.326Z,-1.56
2022-12-18T02:34:05.568Z,-1.51
2022-12-18T02:38:10.297Z,-1.49
2022-12-18T02:42:14.828Z,-1.44
2022-12-18T02:46:35.113Z,-1.40
2022-12-18T02:50:47.322Z,-1.37
2022-12-18T02:54:54.450Z,-1.34
2022-12-18T02:59:02.875Z,-1.32
2022-12-18T03:03:12.524Z,-1.32
2022-12-18T03:07:22.689Z,-1.35
2022-12-18T03:11:41.945Z,-1.35
2022-12-18T03:16:25.129Z,-1.35
2022-12-18T03:20:33.843Z,-1.35
2022-12-18T03:24:40.103Z,-1.34
2022-12-18T03:28:48.664Z,-1.32
2022-12-18T03:33:02.041Z,-1.30
2022-12-18T03:37:07.835Z,-1.32
2022-12-18T03:41:20.293Z,-1.27
2022-12-18T03:45:29.016Z,-1.24
2022-12-18T03:49:43.130Z,-1.21
2022-12-18T03:53:55.202Z,-1.17
2022-12-18T03:58:00.416Z,-1.14
2022-12-18T04:02:05.959Z,-1.13
2022-12-18T04:06:10.747Z,-1.09
2022-12-18T04:10:16.924Z,-1.11
2022-12-18T04:14:20.269Z,-1.15
2022-12-18T04:18:23.346Z,-1.23
2022-12-18T04:22:26.581Z,-1.18
2022-12-18T04:26:31.044Z,-1.18
2022-12-18T04:30:34.372Z,-1.21
2022-12-18T04:34:37.472Z,-1.24
2022-12-18T04:38:41.272Z,-1.25
2022-12-18T04:42:46.155Z,-1.24
2022-12-18T04:46:49.467Z,-1.23
2022-12-18T04:50:52.861Z,-1.23
2022-12-18T04:54:56.184Z,-1.23
2022-12-18T04:59:01.109Z,-1.40
2022-12-18T05:03:04.440Z,-1.24
2022-12-18T05:07:07.856Z,-1.25
2022-12-18T05:11:12.774Z,-1.27
2022-12-18T05:15:17.341Z,-1.27
2022-12-18T05:19:20.716Z,-1.18
2022-12-18T05:23:25.099Z,-1.14
2022-12-18T05:27:28.400Z,-1.09
2022-12-18T05:31:38.935Z,-1.05
2022-12-18T05:35:43.287Z,-1.03
2022-12-18T05:39:47.107Z,-1.04
2022-12-18T05:43:51.039Z,-1.06
2022-12-18T05:47:56.386Z,-1.06
2022-12-18T05:52:00.145Z,-1.06
2022-12-18T05:56:05.038Z,-1.05
2022-12-18T06:00:09.534Z,-1.06
2022-12-18T06:04:16.637Z,-1.05
2022-12-18T06:08:20.011Z,-1.03
2022-12-18T06:12:23.599Z,-1.02
2022-12-18T06:16:27.502Z,-1.00
2022-12-18T06:20:34.271Z,-0.97
2022-12-18T06:24:37.670Z,-0.96
2022-12-18T06:28:41.341Z,-0.98
2022-12-18T06:32:45.748Z,-0.97
2022-12-18T06:36:53.323Z,-0.99
2022-12-18T06:40:56.416Z,-0.99
2022-12-18T06:45:00.130Z,-1.00
2022-12-18T06:49:03.124Z,-1.00
2022-12-18T06:53:07.840Z,-0.99
2022-12-18T06:57:11.040Z,-0.97
2022-12-18T07:01:16.530Z,-0.96
2022-12-18T07:05:19.708Z,-0.94
2022-12-18T07:09:24.645Z,-0.91
2022-12-18T07:13:28.132Z,-0.90
2022-12-18T07:17:31.920Z,-0.89
2022-12-18T07:21:35.034Z,-0.89
2022-12-18T07:25:40.818Z,-0.85
2022-12-18T07:29:43.891Z,-0.84
2022-12-18T07:33:47.910Z,-0.81
2022-12-18T07:37:50.922Z,-0.80
2022-12-18T07:42:09.510Z,-0.81
2022-12-18T07:46:14.963Z,-0.80
2022-12-18T07:50:18.874Z,-0.79
2022-12-18T07:54:21.998Z,-0.78
2022-12-18T07:58:26.945Z,-0.73
2022-12-18T08:02:32.947Z,-0.70
2022-12-18T08:06:36.299Z,-0.67
2022-12-18T08:10:40.431Z,-0.62
2022-12-18T08:14:45.080Z,-0.55
2022-12-18T08:18:48.545Z,-0.50
2022-12-18T08:22:52.812Z,-0.43
2022-12-18T08:27:27.893Z,-0.34
2022-12-18T08:31:21.649Z,-0.24
2022-12-18T08:35:30.482Z,-0.19
2022-12-18T08:39:36.235Z,-0.15
2022-12-18T08:43:57.191Z,-0.17
2022-12-18T08:48:02.022Z,-0.21
2022-12-18T08:52:05.834Z,-0.25
2022-12-18T08:56:09.773Z,-0.27
2022-12-18T09:00:15.175Z,-0.29
2022-12-18T09:04:19.783Z,-0.33
2022-12-18T09:08:23.497Z,-0.37
2022-12-18T09:12:27.084Z,-0.42
2022-12-18T09:16:33.079Z,-0.44
2022-12-18T09:20:39.994Z,-0.44
2022-12-18T09:24:43.343Z,-0.45
2022-12-18T09:28:46.968Z,-0.41
2022-12-18T09:32:50.465Z,-0.35
2022-12-18T09:36:55.815Z,-0.28
2022-12-18T09:41:02.921Z,-0.25
2022-12-18T09:45:06.953Z,-0.23
2022-12-18T09:49:15.927Z,-0.19
2022-12-18T09:53:25.152Z,-0.14
2022-12-18T09:57:28.450Z,-0.03
2022-12-18T10:01:43.245Z,0.07
2022-12-18T10:05:59.650Z,0.19
2022-12-18T10:10:11.305Z,0.32
2022-12-18T10:14:22.965Z,0.49
2022-12-18T10:18:41.322Z,0.69
2022-12-18T10:22:54.822Z,0.91
2022-12-18T10:27:11.477Z,1.10
2022-12-18T10:31:19.391Z,1.29
2022-12-18T10:35:28.726Z,1.48
2022-12-18T10:39:32.298Z,1.71
2022-12-18T10:43:39.172Z,1.91
2022-12-18T10:47:47.024Z,2.09
2022-12-18T10:51:51.022Z,2.22
2022-12-18T10:55:57.206Z,2.37
2022-12-18T11:00:25.150Z,2.53
2022-12-18T11:04:30.062Z,2.74
2022-12-18T11:08:33.493Z,2.94
2022-12-18T11:12:36.642Z,3.12
2022-12-18T11:17:23.717Z,3.27
2022-12-18T11:21:13.818Z,3.38
2022-12-18T11:25:32.663Z,3.43
2022-12-18T11:29:44.802Z,3.46
2022-12-18T11:38:35.521Z,3.51
2022-12-18T11:42:48.506Z,3.49
2022-12-18T11:46:57.808Z,3.43
2022-12-18T11:51:06.599Z,3.39
2022-12-18T11:55:15.960Z,3.33
2022-12-18T11:59:28.935Z,3.23
2022-12-18T12:04:06.232Z,3.13
2022-12-18T12:08:24.368Z,3.00
2022-12-18T12:12:53.848Z,2.85
2022-12-18T12:17:02.462Z,2.70
2022-12-18T12:21:15.893Z,2.57
2022-12-18T12:25:35.834Z,2.41
2022-12-18T12:29:52.511Z,2.24
2022-12-18T12:34:04.988Z,2.11
2022-12-18T12:38:15.201Z,1.97
2022-12-18T12:42:54.176Z,1.91
2022-12-18T12:47:02.269Z,1.84
2022-12-18T12:51:11.873Z,1.79
2022-12-18T12:55:20.166Z,1.81
2022-12-18T12:59:37.516Z,1.76
2022-12-18T13:03:49.368Z,1.73
2022-12-18T13:07:59.284Z,1.65
2022-12-18T13:12:23.910Z,1.57
2022-12-18T13:16:30.612Z,1.46
2022-12-18T13:20:37.435Z,1.39
2022-12-18T13:24:41.751Z,1.38
2022-12-18T13:28:56.257Z,1.40
2022-12-18T13:34:24.512Z,1.43
2022-12-18T13:38:24.691Z,1.42
2022-12-18T13:42:58.004Z,1.37
2022-12-18T13:47:02.898Z,1.27
2022-12-18T13:51:10.321Z,1.26
2022-12-18T13:55:20.578Z,1.19
2022-12-18T13:59:29.053Z,1.10
2022-12-18T14:03:32.841Z,1.00
2022-12-18T14:07:41.788Z,0.91
2022-12-18T14:11:53.178Z,0.86
2022-12-18T14:15:57.061Z,0.77
2022-12-18T14:20:07.732Z,0.76
2022-12-18T14:24:27.331Z,0.77
2022-12-18T14:28:31.029Z,0.71
2022-12-18T14:32:34.502Z,0.62
2022-12-18T14:36:41.289Z,0.59
2022-12-18T14:40:46.145Z,0.57
2022-12-18T14:45:13.058Z,0.53
2022-12-18T14:49:24.762Z,0.44
2022-12-18T14:53:36.856Z,0.46
2022-12-18T14:57:44.815Z,0.43
2022-12-18T15:01:52.767Z,0.43
2022-12-18T15:05:55.908Z,0.43
2022-12-18T15:10:14.324Z,0.43
2022-12-18T15:14:43.930Z,0.46
2022-12-18T15:18:49.384Z,0.45
2022-12-18T15:22:52.626Z,0.44
2022-12-18T15:26:57.063Z,0.42
2022-12-18T15:31:35.973Z,0.40
2022-12-18T15:35:45.266Z,0.36
2022-12-18T15:39:50.325Z,0.35
2022-12-18T15:54:55.374Z,0.21
2022-12-18T15:58:59.528Z,0.21
2022-12-18T16:03:02.765Z,0.19
2022-12-18T16:07:14.821Z,0.20
2022-12-18T16:11:38.914Z,0.22
2022-12-18T16:15:42.569Z,0.19
2022-12-18T16:19:46.195Z,0.16
2022-12-18T16:23:49.501Z,0.10
2022-12-18T16:27:55.504Z,0.10
2022-12-18T16:31:59.983Z,0.10
2022-12-18T16:36:03.382Z,0.09
2022-12-18T16:40:09.878Z,0.08
2022-12-18T16:44:15.412Z,0.10
2022-12-18T16:48:18.820Z,0.08
2022-12-18T16:52:23.149Z,0.07
2022-12-18T16:56:26.672Z,0.03
2022-12-18T17:00:31.398Z,0.03
2022-12-18T17:04:35.332Z,0.03
2022-12-18T17:08:38.656Z,0.01
2022-12-18T17:12:43.144Z,0.03
2022-12-18T17:16:54.256Z,0.03
2022-12-18T17:21:14.587Z,0.01
2022-12-18T17:25:19.745Z,0.00
2022-12-18T17:29:23.090Z,-0.01
2022-12-18T17:33:30.015Z,-0.02
2022-12-18T17:37:34.026Z,-0.02
2022-12-18T17:41:37.121Z,-0.01
2022-12-18T17:45:41.396Z,-0.03
2022-12-18T17:49:46.250Z,-0.01
2022-12-18T17:53:49.580Z,-0.05
2022-12-18T17:57:53.142Z,-0.06
2022-12-18T18:01:56.590Z,-0.06
2022-12-18T18:06:03.642Z,-0.06
2022-12-18T18:10:08.175Z,-0.06
2022-12-18T18:14:15.353Z,-0.03
2022-12-18T18:18:18.430Z,-0.05
2022-12-18T18:22:26.725Z,-0.03
2022-12-18T18:26:31.350Z,-0.04
2022-12-18T18:35:00.004Z,-0.05
2022-12-18T18:39:04.942Z,-0.04
2022-12-18T18:43:10.188Z,-0.06
2022-12-18T18:47:14.938Z,-0.03
2022-12-18T18:51:26.851Z,-0.03
2022-12-18T18:55:40.018Z,-0.02
2022-12-18T18:59:45.141Z,-0.01
2022-12-18T19:03:49.275Z,-0.03
2022-12-18T19:07:53.161Z,-0.05
2022-12-18T19:12:15.784Z,-0.06
2022-12-18T19:16:21.169Z,-0.05
2022-12-18T19:20:36.421Z,-0.09
2022-12-18T19:24:40.860Z,-0.10
2022-12-18T19:28:48.267Z,-0.08
2022-12-18T19:32:52.662Z,-0.08
2022-12-18T19:37:00.230Z,-0.11
2022-12-18T19:41:06.550Z,-0.07
2022-12-18T19:45:17.004Z,-0.05
2022-12-18T19:49:21.779Z,-0.06
2022-12-18T19:53:27.912Z,-0.02
2022-12-18T19:57:34.715Z,-0.02
2022-12-18T20:01:42.173Z,-0.04
2022-12-18T20:05:46.610Z,-0.01
2022-12-18T20:09:59.574Z,-0.01
2022-12-18T20:14:09.008Z,0.01
2022-12-18T20:18:14.269Z,0.03
2022-12-18T20:22:21.337Z,0.03
2022-12-18T20:26:30.919Z,0.03
2022-12-18T20:30:35.776Z,0.00
2022-12-18T20:34:42.105Z,0.03
2022-12-18T20:38:46.716Z,0.05
2022-12-18T20:42:52.610Z,0.05
2022-12-18T20:46:58.429Z,0.07
2022-12-18T20:51:06.325Z,0.08
2022-12-18T20:55:11.400Z,0.10
2022-12-18T20:59:16.537Z,0.08
2022-12-18T21:03:21.991Z,0.10
2022-12-18T21:07:30.417Z,0.09
2022-12-18T21:11:53.260Z,0.12
2022-12-18T21:15:57.247Z,0.10
2022-12-18T21:20:02.158Z,0.12
2022-12-18T21:24:08.358Z,0.14
2022-12-18T21:28:11.876Z,0.13
2022-12-18T21:32:17.915Z,0.15
2022-12-18T21:36:23.411Z,0.16
2022-12-18T21:40:29.327Z,0.16
2022-12-18T21:44:41.516Z,0.18
2022-12-18T21:48:46.322Z,0.20
2022-12-18T21:52:50.006Z,0.20
2022-12-18T21:56:59.705Z,0.19
2022-12-18T22:01:04.426Z,0.22
2022-12-18T22:05:08.921Z,0.23
2022-12-18T22:09:14.921Z,0.25
2022-12-18T22:13:24.769Z,0.24
2022-12-18T22:17:28.370Z,0.29
2022-12-18T22:21:34.639Z,0.29
2022-12-18T22:25:39.731Z,0.30
2022-12-18T22:30:02.327Z,0.34
2022-12-18T22:34:06.374Z,0.35
2022-12-18T22:43:33.947Z,0.38
2022-12-18T22:47:39.295Z,0.44
2022-12-18T22:51:43.248Z,0.43
2022-12-18T22:55:46.900Z,0.43
2022-12-18T22:59:50.822Z,0.46
2022-12-18T23:03:56.560Z,0.49
2022-12-18T23:08:00.829Z,0.49
2022-12-18T23:12:04.377Z,0.53
2022-12-18T23:16:09.033Z,0.55
2022-12-18T23:20:17.645Z,0.56
2022-12-18T23:24:21.363Z,0.57
2022-12-18T23:28:24.382Z,0.58
2022-12-18T23:32:29.860Z,0.59
2022-12-18T23:36:45.467Z,0.60
2022-12-18T23:40:50.506Z,0.62
2022-12-18T23:44:58.290Z,0.61
2022-12-18T23:49:04.951Z,0.58
2022-12-18T23:53:12.611Z,0.63
2022-12-18T23:57:16.137Z,0.68
